createdAt,value
2019-01-13T00:01:33.211Z,11.33
2019-01-13T00:03:59.619Z,10.43
2019-01-13T00:06:25.804Z,14.27
2019-01-13T00:08:51.840Z,10.50
2019-01-13T00:11:18.068Z,17.30
2019-01-13T00:13:44.436Z,11.83
2019-01-13T00:16:10.577Z,10.73
2019-01-13T00:18:36.660Z,14.10
2019-01-13T00:21:03.202Z,13.67
2019-01-13T00:23:29.469Z,15.50
2019-01-13T00:25:55.492Z,14.37
2019-01-13T00:28:21.814Z,15.53
2019-01-13T00:30:47.855Z,12.53
2019-01-13T00:33:13.927Z,12.20
2019-01-13T00:35:40.074Z,29.27
2019-01-13T00:38:06.343Z,16.93
2019-01-13T00:40:32.478Z,22.50
2019-01-13T00:42:58.603Z,11.37
2019-01-13T00:45:25.227Z,12.30
2019-01-13T00:47:51.256Z,13.60
2019-01-13T00:50:17.426Z,17.37
2019-01-13T00:52:43.677Z,15.07
2019-01-13T00:55:11.506Z,10.13
2019-01-13T00:57:37.531Z,14.03
2019-01-13T01:00:07.692Z,10.00
2019-01-13T01:02:33.899Z,5.23
2019-01-13T01:04:59.966Z,13.87
2019-01-13T01:07:26.179Z,14.93
2019-01-13T01:09:52.390Z,10.70
2019-01-13T01:12:18.427Z,9.47
2019-01-13T01:14:44.522Z,12.07
2019-01-13T01:17:10.907Z,12.60
2019-01-13T01:19:36.939Z,10.43
2019-01-13T01:22:03.793Z,12.37
2019-01-13T01:24:29.807Z,11.60
2019-01-13T01:26:55.806Z,10.10
2019-01-13T01:29:21.851Z,16.73
2019-01-13T01:31:48.031Z,14.10
2019-01-13T01:34:14.187Z,10.10
2019-01-13T01:36:40.247Z,11.63
2019-01-13T01:39:06.498Z,12.20
2019-01-13T01:41:32.803Z,8.87
2019-01-13T01:43:58.968Z,10.90
2019-01-13T01:46:25.094Z,9.90
2019-01-13T01:48:51.178Z,11.20
2019-01-13T01:51:17.699Z,9.53
2019-01-13T01:53:43.976Z,9.90
2019-01-13T01:56:10.157Z,13.47
2019-01-13T01:58:36.248Z,13.57
2019-01-13T02:01:03.009Z,11.13
2019-01-13T02:03:29.107Z,9.17
2019-01-13T02:05:55.291Z,10.63
2019-01-13T02:08:21.467Z,14.77
2019-01-13T02:10:48.042Z,9.30
2019-01-13T02:13:14.115Z,12.20
2019-01-13T02:15:40.400Z,12.57
2019-01-13T02:18:06.610Z,6.77
2019-01-13T02:20:32.663Z,13.53
2019-01-13T02:22:59.010Z,5.60
2019-01-13T02:25:25.736Z,16.73
2019-01-13T02:27:51.910Z,14.77
2019-01-13T02:30:20.192Z,16.57
2019-01-13T02:32:46.404Z,11.57
2019-01-13T02:35:12.415Z,12.03
2019-01-13T02:37:38.449Z,13.00
2019-01-13T02:40:08.265Z,10.03
2019-01-13T02:42:34.277Z,24.80
2019-01-13T02:45:00.881Z,8.13
2019-01-13T02:47:26.981Z,16.00
2019-01-13T02:49:53.387Z,9.70
2019-01-13T02:52:19.438Z,11.20
2019-01-13T02:54:45.799Z,18.43
2019-01-13T02:57:11.933Z,16.97
2019-01-13T02:59:37.927Z,10.60
2019-01-13T03:02:05.591Z,6.20
2019-01-13T03:04:31.755Z,10.93
2019-01-13T03:06:58.044Z,13.13
2019-01-13T03:09:24.061Z,10.47
2019-01-13T03:11:51.494Z,12.20
2019-01-13T03:14:17.532Z,8.10
2019-01-13T03:16:43.770Z,5.00
2019-01-13T03:19:09.904Z,6.63
2019-01-13T03:21:35.974Z,7.20
2019-01-13T03:24:02.131Z,12.60
2019-01-13T03:26:28.391Z,10.07
2019-01-13T03:28:54.506Z,9.77
2019-01-13T03:31:20.615Z,9.83
2019-01-13T03:33:46.663Z,12.37
2019-01-13T03:36:12.757Z,7.10
2019-01-13T03:38:38.921Z,10.80
2019-01-13T03:41:05.346Z,10.53
2019-01-13T03:43:31.439Z,5.43
2019-01-13T03:45:57.496Z,9.00
2019-01-13T03:48:23.607Z,10.37
2019-01-13T03:50:49.649Z,15.77
2019-01-13T03:53:15.672Z,13.17
2019-01-13T03:55:41.800Z,6.97
2019-01-13T03:58:08.063Z,10.43
2019-01-13T04:00:34.179Z,7.53
2019-01-13T04:03:00.228Z,8.20
2019-01-13T04:05:26.339Z,5.40
2019-01-13T04:07:52.657Z,7.60
2019-01-13T04:10:18.781Z,5.70
2019-01-13T04:12:45.010Z,11.50
2019-01-13T04:15:17.586Z,9.40
2019-01-13T04:17:44.421Z,6.20
2019-01-13T04:20:10.435Z,9.07
2019-01-13T04:22:36.503Z,10.17
2019-01-13T04:25:03.722Z,11.90
2019-01-13T04:27:29.769Z,8.30
2019-01-13T04:29:55.774Z,16.00
2019-01-13T04:32:21.808Z,4.27
2019-01-13T04:34:47.827Z,5.57
2019-01-13T04:37:13.877Z,11.77
2019-01-13T04:39:39.927Z,13.20
2019-01-13T04:42:05.986Z,12.90
2019-01-13T04:44:32.012Z,13.13
2019-01-13T04:46:58.401Z,11.70
2019-01-13T04:49:24.447Z,13.93
2019-01-13T04:51:50.490Z,7.57
2019-01-13T04:54:16.494Z,12.80
2019-01-13T04:56:42.530Z,13.10
2019-01-13T04:59:08.562Z,12.93
2019-01-13T05:01:36.746Z,12.03
2019-01-13T05:04:02.655Z,9.60
2019-01-13T05:06:28.680Z,13.03
2019-01-13T05:08:54.723Z,15.63
2019-01-13T05:11:20.739Z,12.03
2019-01-13T05:13:46.782Z,21.83
2019-01-13T05:16:12.826Z,16.27
2019-01-13T05:18:38.931Z,14.70
2019-01-13T05:21:04.949Z,13.20
2019-01-13T05:23:30.945Z,18.40
2019-01-13T05:25:56.974Z,14.93
2019-01-13T05:28:22.979Z,17.60
2019-01-13T05:30:49.015Z,19.97
2019-01-13T05:33:15.079Z,11.27
2019-01-13T05:35:41.122Z,11.00
2019-01-13T05:38:07.158Z,8.63
2019-01-13T05:40:33.154Z,12.83
2019-01-13T05:42:59.451Z,12.93
2019-01-13T05:45:25.704Z,13.13
2019-01-13T05:47:51.832Z,13.83
2019-01-13T05:50:18.473Z,12.00
2019-01-13T05:52:46.817Z,7.80
2019-01-13T05:55:13.525Z,12.90
2019-01-13T05:57:39.592Z,11.50
2019-01-13T06:00:12.032Z,13.60
2019-01-13T06:02:38.046Z,19.23
2019-01-13T06:05:05.366Z,13.03
2019-01-13T06:07:31.561Z,11.70
2019-01-13T06:09:57.686Z,13.27
2019-01-13T06:12:23.827Z,12.53
2019-01-13T06:14:49.838Z,12.20
2019-01-13T06:17:15.963Z,11.80
2019-01-13T06:19:41.987Z,13.93
2019-01-13T06:22:08.247Z,8.97
2019-01-13T06:24:34.353Z,13.40
2019-01-13T06:27:00.742Z,14.30
2019-01-13T06:29:26.734Z,16.13
2019-01-13T06:31:56.419Z,12.50
2019-01-13T06:34:20.746Z,25.83
2019-01-13T06:36:46.834Z,11.03
2019-01-13T06:39:12.954Z,19.10
2019-01-13T06:41:38.958Z,14.00
2019-01-13T06:44:05.003Z,10.83
2019-01-13T06:46:31.126Z,12.10
2019-01-13T06:48:58.494Z,13.23
2019-01-13T06:51:24.508Z,12.47
2019-01-13T06:53:50.538Z,16.50
2019-01-13T06:56:16.618Z,22.80
2019-01-13T06:58:42.716Z,16.40
2019-01-13T07:01:08.728Z,10.90
2019-01-13T07:03:34.749Z,9.47
2019-01-13T07:06:00.894Z,16.03
2019-01-13T07:08:28.203Z,13.70
2019-01-13T07:10:54.287Z,11.50
2019-01-13T07:13:20.389Z,12.50
2019-01-13T07:15:46.429Z,10.47
2019-01-13T07:18:12.439Z,11.70
2019-01-13T07:20:38.465Z,11.30
2019-01-13T07:23:04.465Z,12.83
2019-01-13T07:25:30.517Z,6.33
2019-01-13T07:27:56.670Z,7.90
2019-01-13T07:30:22.777Z,8.40
2019-01-13T07:32:49.072Z,9.27
2019-01-13T07:35:15.458Z,3.87
2019-01-13T07:37:41.575Z,4.73
2019-01-13T07:40:13.462Z,4.30
2019-01-13T07:42:39.590Z,4.47
2019-01-13T07:45:09.012Z,3.73
2019-01-13T07:47:35.142Z,4.40
2019-01-13T07:50:01.213Z,4.07
2019-01-13T07:52:27.385Z,2.23
2019-01-13T07:54:53.511Z,5.83
2019-01-13T07:57:20.471Z,4.30
2019-01-13T07:59:46.902Z,5.37
2019-01-13T08:02:17.885Z,2.87
2019-01-13T08:04:41.174Z,5.53
2019-01-13T08:07:07.539Z,4.50
2019-01-13T08:09:34.690Z,2.80
2019-01-13T08:12:00.710Z,6.60
2019-01-13T08:14:26.779Z,8.87
2019-01-13T08:16:52.796Z,6.63
2019-01-13T08:19:18.854Z,10.20
2019-01-13T08:21:44.960Z,9.93
2019-01-13T08:24:11.198Z,8.83
2019-01-13T08:26:37.217Z,5.97
2019-01-13T08:29:03.449Z,5.13
2019-01-13T08:31:29.473Z,11.00
2019-01-13T08:33:55.533Z,5.43
2019-01-13T08:36:21.657Z,10.10
2019-01-13T08:38:47.818Z,5.70
2019-01-13T08:41:14.012Z,12.60
2019-01-13T08:43:40.563Z,9.03
2019-01-13T08:46:06.776Z,8.00
2019-01-13T08:48:32.840Z,5.80
2019-01-13T08:50:58.939Z,8.80
2019-01-13T08:53:25.340Z,6.80
2019-01-13T08:55:52.289Z,8.83
2019-01-13T08:58:18.459Z,10.60
2019-01-13T09:00:44.798Z,13.30
2019-01-13T09:03:10.929Z,10.57
2019-01-13T09:05:37.569Z,12.10
2019-01-13T09:08:03.838Z,8.17
2019-01-13T09:10:29.857Z,5.87
2019-01-13T09:12:56.952Z,9.00
2019-01-13T09:15:24.284Z,7.23
2019-01-13T09:17:50.313Z,11.60
2019-01-13T09:20:20.252Z,11.43
2019-01-13T09:22:46.686Z,7.40
2019-01-13T09:25:12.946Z,9.57
2019-01-13T09:27:39.196Z,6.43
2019-01-13T09:30:11.943Z,8.67
2019-01-13T09:32:39.639Z,8.60
2019-01-13T09:35:06.167Z,8.00
2019-01-13T09:37:32.501Z,9.13
2019-01-13T09:39:59.108Z,6.63
2019-01-13T09:42:25.446Z,7.40
2019-01-13T09:44:51.481Z,10.13
2019-01-13T09:47:17.629Z,6.70
2019-01-13T09:49:49.854Z,9.00
2019-01-13T09:52:12.542Z,5.43
2019-01-13T09:54:38.611Z,6.30
2019-01-13T09:57:04.885Z,3.00
2019-01-13T09:59:31.045Z,3.63
2019-01-13T10:01:57.317Z,3.67
2019-01-13T10:04:23.410Z,3.03
2019-01-13T10:06:49.452Z,5.83
2019-01-13T10:09:15.537Z,4.13
2019-01-13T10:11:41.725Z,4.03
2019-01-13T10:14:08.117Z,4.73
2019-01-13T10:16:34.302Z,5.20
2019-01-13T10:19:00.654Z,3.70
2019-01-13T10:21:27.079Z,3.23
2019-01-13T10:23:53.347Z,4.30
2019-01-13T10:26:19.392Z,7.30
2019-01-13T10:28:45.507Z,5.50
2019-01-13T10:31:11.591Z,3.17
2019-01-13T10:33:38.069Z,4.67
2019-01-13T10:36:04.455Z,5.13
2019-01-13T10:38:30.551Z,3.47
2019-01-13T10:40:56.918Z,4.43
2019-01-13T10:43:23.209Z,5.60
2019-01-13T10:45:49.411Z,3.90
2019-01-13T10:48:15.529Z,4.87
2019-01-13T10:50:47.587Z,6.27
2019-01-13T10:53:13.582Z,6.60
2019-01-13T10:55:39.683Z,3.50
2019-01-13T10:58:05.740Z,3.40
2019-01-13T11:00:33.352Z,4.30
2019-01-13T11:03:02.298Z,4.90
2019-01-13T11:05:27.995Z,5.20
2019-01-13T11:07:54.685Z,5.73
2019-01-13T11:10:20.826Z,4.03
2019-01-13T11:12:47.073Z,4.30
2019-01-13T11:15:21.579Z,3.43
2019-01-13T11:17:43.895Z,3.80
2019-01-13T11:20:13.677Z,3.80
2019-01-13T11:22:39.873Z,3.07
2019-01-13T11:25:07.151Z,2.40
2019-01-13T11:27:33.412Z,2.33
2019-01-13T11:29:59.558Z,2.10
2019-01-13T11:32:27.218Z,4.40
2019-01-13T11:34:53.246Z,1.70
2019-01-13T11:37:19.592Z,3.77
2019-01-13T11:39:45.987Z,3.77
2019-01-13T11:42:12.658Z,2.37
2019-01-13T11:44:38.846Z,2.90
2019-01-13T11:47:05.350Z,1.70
2019-01-13T11:49:31.757Z,5.20
2019-01-13T11:51:57.768Z,3.43
2019-01-13T11:54:23.929Z,2.90
2019-01-13T11:56:50.115Z,2.50
2019-01-13T11:59:16.362Z,4.23
2019-01-13T12:01:42.494Z,2.37
2019-01-13T12:04:09.594Z,1.50
2019-01-13T12:06:35.627Z,5.40
2019-01-13T12:09:02.187Z,4.73
2019-01-13T12:11:28.306Z,3.80
2019-01-13T12:13:54.418Z,1.60
2019-01-13T12:16:20.958Z,1.30
2019-01-13T12:18:46.998Z,1.60
2019-01-13T12:21:13.205Z,1.43
2019-01-13T12:23:39.232Z,3.50
2019-01-13T12:26:05.458Z,1.83
2019-01-13T12:28:31.473Z,1.67
2019-01-13T12:30:57.530Z,2.30
2019-01-13T12:33:24.710Z,2.87
2019-01-13T12:35:51.001Z,3.73
2019-01-13T12:38:17.030Z,2.00
2019-01-13T12:40:43.118Z,1.70
2019-01-13T12:43:09.366Z,1.93
2019-01-13T12:45:35.369Z,2.73
2019-01-13T12:48:01.702Z,2.57
2019-01-13T12:50:28.732Z,3.60
2019-01-13T12:52:54.802Z,1.93
2019-01-13T12:55:21.153Z,2.23
2019-01-13T12:57:47.312Z,1.83
2019-01-13T13:00:15.981Z,2.33
2019-01-13T13:02:42.090Z,2.10
2019-01-13T13:05:10.537Z,1.80
2019-01-13T13:07:36.719Z,5.43
2019-01-13T13:10:23.105Z,1.77
2019-01-13T13:12:49.203Z,1.70
2019-01-13T13:15:15.518Z,4.70
2019-01-13T13:17:41.726Z,1.90
2019-01-13T13:20:16.198Z,1.23
2019-01-13T13:22:42.514Z,2.70
2019-01-13T13:25:10.794Z,1.77
2019-01-13T13:27:36.877Z,3.20
2019-01-13T13:30:06.880Z,2.00
2019-01-13T13:32:32.946Z,3.40
2019-01-13T13:34:58.982Z,3.23
2019-01-13T13:37:25.014Z,4.90
2019-01-13T13:39:51.136Z,2.83
2019-01-13T13:42:17.180Z,2.43
2019-01-13T13:44:43.326Z,4.17
2019-01-13T13:47:09.603Z,3.37
2019-01-13T13:49:35.855Z,4.80
2019-01-13T13:52:01.878Z,6.33
2019-01-13T13:54:27.926Z,3.73
2019-01-13T13:56:53.939Z,3.97
2019-01-13T13:59:20.297Z,4.60
2019-01-13T14:01:46.620Z,4.30
2019-01-13T14:04:12.758Z,1.83
2019-01-13T14:06:38.806Z,3.67
2019-01-13T14:09:06.764Z,3.80
2019-01-13T14:11:33.031Z,3.03
2019-01-13T14:13:59.166Z,1.83
2019-01-13T14:16:25.574Z,5.53
2019-01-13T14:18:51.667Z,5.00
2019-01-13T14:21:17.742Z,2.40
2019-01-13T14:23:43.804Z,3.00
2019-01-13T14:26:09.893Z,5.23
2019-01-13T14:28:35.920Z,5.10
2019-01-13T14:31:02.351Z,8.43
2019-01-13T14:33:28.515Z,3.93
2019-01-13T14:35:55.296Z,5.03
2019-01-13T14:38:21.645Z,4.63
2019-01-13T14:40:48.133Z,7.20
2019-01-13T14:43:14.324Z,9.90
2019-01-13T14:45:40.522Z,5.90
2019-01-13T14:48:06.707Z,3.10
2019-01-13T14:50:33.482Z,8.87
2019-01-13T14:52:59.705Z,6.73
2019-01-13T14:55:25.851Z,11.40
2019-01-13T14:57:52.034Z,17.90
2019-01-13T15:00:26.322Z,8.10
2019-01-13T15:02:52.594Z,13.07
2019-01-13T15:05:21.767Z,12.77
2019-01-13T15:07:48.325Z,10.17
2019-01-13T15:10:17.171Z,9.70
2019-01-13T15:12:43.327Z,10.13
2019-01-13T15:15:11.943Z,8.57
2019-01-13T15:17:38.320Z,17.20
2019-01-13T15:20:10.122Z,9.87
2019-01-13T15:22:36.426Z,12.13
2019-01-13T15:25:05.841Z,9.57
2019-01-13T15:27:31.834Z,7.00
2019-01-13T15:29:58.540Z,8.73
2019-01-13T15:32:25.162Z,4.90
2019-01-13T15:34:51.575Z,7.30
2019-01-13T15:37:18.317Z,10.77
2019-01-13T15:39:44.565Z,6.20
2019-01-13T15:42:10.754Z,5.80
2019-01-13T15:44:37.048Z,6.47
2019-01-13T15:47:03.219Z,6.63
2019-01-13T15:49:29.335Z,4.73
2019-01-13T15:51:55.768Z,4.10
2019-01-13T15:54:22.043Z,7.03
2019-01-13T15:56:48.112Z,3.70
2019-01-13T15:59:14.295Z,3.37
2019-01-13T16:01:40.361Z,5.57
2019-01-13T16:04:14.580Z,5.00
2019-01-13T16:06:37.091Z,5.37
2019-01-13T16:09:07.776Z,5.00
2019-01-13T16:11:34.350Z,6.67
2019-01-13T16:14:01.158Z,3.40
2019-01-13T16:16:28.569Z,3.73
2019-01-13T16:18:54.923Z,3.27
2019-01-13T16:21:21.355Z,2.97
2019-01-13T16:23:47.584Z,5.13
2019-01-13T16:26:13.811Z,6.80
2019-01-13T16:28:39.920Z,10.13
2019-01-13T16:31:06.178Z,5.27
2019-01-13T16:33:32.326Z,9.87
2019-01-13T16:35:58.480Z,9.37
2019-01-13T16:38:24.525Z,5.30
2019-01-13T16:40:50.598Z,5.00
2019-01-13T16:43:16.667Z,8.47
2019-01-13T16:45:43.824Z,8.80
2019-01-13T16:48:09.924Z,6.87
2019-01-13T16:50:36.004Z,8.23
2019-01-13T16:53:05.981Z,10.93
2019-01-13T16:55:30.614Z,9.53
2019-01-13T16:57:56.730Z,17.73
2019-01-13T17:00:24.835Z,7.77
2019-01-13T17:02:51.197Z,16.70
2019-01-13T17:05:19.213Z,12.00
2019-01-13T17:07:45.787Z,13.10
2019-01-13T17:10:14.589Z,14.73
2019-01-13T17:12:40.761Z,8.10
2019-01-13T17:15:09.920Z,22.00
2019-01-13T17:17:36.088Z,20.83
2019-01-13T17:20:05.761Z,14.47
2019-01-13T17:22:31.899Z,14.10
2019-01-13T17:24:58.079Z,13.63
2019-01-13T17:27:24.340Z,13.33
2019-01-13T17:29:50.586Z,10.97
2019-01-13T17:32:16.848Z,12.20
2019-01-13T17:34:44.252Z,12.77
2019-01-13T17:37:10.934Z,15.83
2019-01-13T17:39:37.015Z,12.80
2019-01-13T17:42:03.348Z,13.23
2019-01-13T17:44:29.444Z,9.00
2019-01-13T17:46:55.454Z,8.20
2019-01-13T17:49:21.488Z,21.13
2019-01-13T17:51:47.894Z,15.50
2019-01-13T17:54:14.225Z,11.67
2019-01-13T17:56:40.418Z,19.00
2019-01-13T17:59:06.445Z,18.27
2019-01-13T18:01:33.100Z,12.50
2019-01-13T18:04:00.615Z,15.20
2019-01-13T18:06:27.742Z,10.67
2019-01-13T18:08:55.486Z,10.17
2019-01-13T18:11:21.677Z,13.33
2019-01-13T18:13:47.846Z,9.57
2019-01-13T18:16:14.158Z,14.33
2019-01-13T18:18:40.292Z,10.90
2019-01-13T18:21:06.442Z,16.97
2019-01-13T18:23:32.634Z,14.20
2019-01-13T18:25:58.686Z,17.97
2019-01-13T18:28:24.763Z,16.33
2019-01-13T18:30:51.000Z,22.17
2019-01-13T18:33:17.192Z,15.67
2019-01-13T18:35:43.320Z,9.13
2019-01-13T18:38:09.461Z,15.20
2019-01-13T18:40:36.001Z,19.03
2019-01-13T18:43:02.182Z,24.87
2019-01-13T18:45:28.280Z,22.47
2019-01-13T18:47:54.350Z,15.03
2019-01-13T18:50:22.037Z,32.63
2019-01-13T18:52:52.008Z,22.83
2019-01-13T18:55:18.149Z,29.03
2019-01-13T18:57:44.539Z,22.87
2019-01-13T19:00:22.130Z,17.40
2019-01-13T19:02:48.290Z,22.80
2019-01-13T19:05:16.057Z,18.33
2019-01-13T19:07:42.152Z,15.50
2019-01-13T19:10:21.673Z,20.83
2019-01-13T19:12:51.662Z,16.97
2019-01-13T19:15:17.706Z,21.10
2019-01-13T19:17:44.463Z,24.20
2019-01-13T19:20:13.265Z,27.03
2019-01-13T19:22:39.658Z,16.40
2019-01-13T19:25:09.554Z,22.33
2019-01-13T19:27:35.587Z,22.97
2019-01-13T19:30:08.010Z,14.33
2019-01-13T19:32:34.190Z,18.10
2019-01-13T19:35:04.500Z,15.30
2019-01-13T19:37:28.226Z,16.10
2019-01-13T19:39:54.222Z,18.67
2019-01-13T19:42:20.391Z,14.33
2019-01-13T19:44:46.579Z,13.40
2019-01-13T19:47:12.631Z,13.17
2019-01-13T19:49:38.942Z,18.97
2019-01-13T19:52:04.954Z,15.53
2019-01-13T19:54:33.366Z,10.20
2019-01-13T19:57:02.646Z,13.30
2019-01-13T19:59:29.337Z,13.30
2019-01-13T20:01:55.479Z,20.00
2019-01-13T20:04:21.809Z,12.40
2019-01-13T20:06:47.840Z,18.40
2019-01-13T20:09:13.903Z,9.67
2019-01-13T20:11:39.902Z,9.63
2019-01-13T20:14:05.993Z,10.53
2019-01-13T20:16:32.487Z,19.17
2019-01-13T20:18:58.498Z,12.90
2019-01-13T20:21:24.659Z,22.17
2019-01-13T20:23:50.994Z,18.37
2019-01-13T20:26:17.136Z,20.10
2019-01-13T20:28:43.162Z,11.60
2019-01-13T20:31:09.290Z,12.03
2019-01-13T20:33:35.375Z,14.73
2019-01-13T20:36:01.509Z,8.00
2019-01-13T20:38:27.549Z,10.40
2019-01-13T20:40:53.607Z,9.93
2019-01-13T20:43:19.906Z,13.67
2019-01-13T20:45:46.048Z,9.70
2019-01-13T20:48:12.194Z,14.63
2019-01-13T20:50:38.267Z,16.00
2019-01-13T20:53:04.445Z,16.40
2019-01-13T20:55:30.639Z,15.10
2019-01-13T20:57:56.657Z,20.37
2019-01-13T21:00:27.400Z,12.43
2019-01-13T21:02:54.205Z,20.07
2019-01-13T21:05:26.574Z,14.40
2019-01-13T21:07:52.660Z,8.07
2019-01-13T21:10:20.004Z,15.13
2019-01-13T21:12:46.225Z,12.73
2019-01-13T21:15:24.634Z,18.67
2019-01-13T21:17:57.252Z,18.40
2019-01-13T21:20:19.362Z,20.43
2019-01-13T21:22:46.324Z,20.80
2019-01-13T21:25:15.030Z,26.03
2019-01-13T21:27:41.329Z,24.47
2019-01-13T21:30:16.984Z,20.27
2019-01-13T21:32:43.796Z,28.70
2019-01-13T21:35:10.117Z,22.13
2019-01-13T21:37:36.173Z,24.87
2019-01-13T21:40:05.606Z,22.13
2019-01-13T21:42:31.689Z,25.00
2019-01-13T21:44:57.859Z,21.30
2019-01-13T21:47:23.922Z,24.80
2019-01-13T21:49:49.978Z,27.20
2019-01-13T21:52:16.031Z,24.60
2019-01-13T21:54:42.078Z,28.60
2019-01-13T21:57:08.263Z,26.87
2019-01-13T21:59:34.347Z,21.90
2019-01-13T22:02:00.416Z,28.00
2019-01-13T22:04:26.505Z,24.50
2019-01-13T22:06:52.938Z,32.90
2019-01-13T22:09:20.324Z,30.63
2019-01-13T22:11:47.608Z,22.17
2019-01-13T22:14:15.923Z,25.60
2019-01-13T22:16:42.138Z,33.20
2019-01-13T22:19:08.312Z,26.23
2019-01-13T22:21:34.563Z,31.53
2019-01-13T22:24:00.730Z,36.97
2019-01-13T22:26:26.877Z,29.10
2019-01-13T22:28:53.005Z,27.97
2019-01-13T22:31:22.472Z,27.50
2019-01-13T22:33:47.379Z,26.27
2019-01-13T22:36:13.814Z,30.87
2019-01-13T22:38:39.914Z,33.77
2019-01-13T22:41:06.095Z,38.20
2019-01-13T22:43:32.158Z,33.37
2019-01-13T22:45:58.204Z,40.23
2019-01-13T22:48:24.286Z,32.63
2019-01-13T22:50:50.322Z,25.30
2019-01-13T22:53:16.451Z,29.77
2019-01-13T22:55:42.541Z,25.10
2019-01-13T22:58:08.595Z,27.80
2019-01-13T23:01:04.003Z,31.30
2019-01-13T23:03:30.062Z,26.63
2019-01-13T23:05:56.258Z,28.80
2019-01-13T23:08:22.562Z,26.47
2019-01-13T23:10:48.614Z,25.33
2019-01-13T23:13:14.726Z,35.23
2019-01-13T23:15:40.862Z,31.17
2019-01-13T23:18:06.881Z,31.33
2019-01-13T23:20:32.961Z,23.03
2019-01-13T23:22:58.999Z,23.00
2019-01-13T23:25:25.153Z,16.50
2019-01-13T23:27:51.185Z,21.23
2019-01-13T23:30:17.262Z,23.90
2019-01-13T23:32:43.261Z,16.40
2019-01-13T23:35:09.416Z,20.37
2019-01-13T23:37:35.434Z,21.40
2019-01-13T23:40:03.126Z,29.43
2019-01-13T23:42:29.192Z,20.13
2019-01-13T23:44:55.203Z,25.23
2019-01-13T23:47:21.862Z,23.97
2019-01-13T23:49:48.149Z,17.13
2019-01-13T23:52:14.274Z,21.80
2019-01-13T23:54:40.616Z,16.20
2019-01-13T23:57:06.949Z,14.67
2019-01-13T23:59:32.983Z,11.60
